createdAt,value
2022-12-07T00:01:24.990Z,10.10
2022-12-07T00:03:54.000Z,10.10
2022-12-07T00:06:21.599Z,10.10
2022-12-07T00:08:48.679Z,10.10
2022-12-07T00:11:21.441Z,10.10
2022-12-07T00:13:53.079Z,10.10
2022-12-07T00:16:21.660Z,10.10
2022-12-07T00:18:48.584Z,10.10
2022-12-07T00:21:21.162Z,10.10
2022-12-07T00:23:49.722Z,10.10
2022-12-07T00:26:20.802Z,10.10
2022-12-07T00:28:49.047Z,10.10
2022-12-07T00:31:17.571Z,10.20
2022-12-07T00:33:44.942Z,10.10
2022-12-07T00:36:15.031Z,10.10
2022-12-07T00:38:42.308Z,10.10
2022-12-07T00:41:16.605Z,10.20
2022-12-07T00:43:44.561Z,10.10
2022-12-07T00:46:12.432Z,10.10
2022-12-07T00:48:39.376Z,10.20
2022-12-07T00:51:06.745Z,10.10
2022-12-07T00:53:41.384Z,10.10
2022-12-07T00:56:11.002Z,10.10
2022-12-07T00:58:37.831Z,10.10
2022-12-07T01:01:06.771Z,10.10
2022-12-07T01:03:33.956Z,10.10
2022-12-07T01:06:02.095Z,10.10
2022-12-07T01:08:30.064Z,10.10
2022-12-07T01:11:17.782Z,10.10
2022-12-07T01:13:45.759Z,10.10
2022-12-07T01:16:16.023Z,10.10
2022-12-07T01:18:43.591Z,10.10
2022-12-07T01:21:14.508Z,10.10
2022-12-07T01:23:42.197Z,10.10
2022-12-07T01:26:13.271Z,10.10
2022-12-07T01:28:40.848Z,10.10
2022-12-07T01:31:13.715Z,10.10
2022-12-07T01:33:40.630Z,10.10
2022-12-07T01:36:19.016Z,10.10
2022-12-07T01:38:47.871Z,10.10
2022-12-07T01:41:15.504Z,10.10
2022-12-07T01:44:15.447Z,10.10
2022-12-07T01:47:03.359Z,10.10
2022-12-07T01:49:36.058Z,10.10
2022-12-07T01:52:20.787Z,10.10
2022-12-07T01:54:50.797Z,10.10
2022-12-07T01:57:18.603Z,10.10
2022-12-07T01:59:48.421Z,10.10
2022-12-07T02:02:46.870Z,10.10
2022-12-07T02:05:14.813Z,10.10
2022-12-07T02:07:41.924Z,10.10
2022-12-07T02:10:15.001Z,10.10
2022-12-07T02:12:42.304Z,10.10
2022-12-07T02:15:09.490Z,10.10
2022-12-07T02:17:53.625Z,10.00
2022-12-07T02:20:24.343Z,10.00
2022-12-07T02:23:16.423Z,10.00
2022-12-07T02:26:11.681Z,10.00
2022-12-07T02:29:01.551Z,10.00
2022-12-07T02:31:31.059Z,10.00
2022-12-07T02:34:14.189Z,10.00
2022-12-07T02:36:47.521Z,10.00
2022-12-07T02:39:34.618Z,10.00
2022-12-07T02:42:08.694Z,10.00
2022-12-07T02:44:36.220Z,10.00
2022-12-07T02:47:06.728Z,9.90
2022-12-07T02:49:36.351Z,9.90
2022-12-07T02:52:03.919Z,9.90
2022-12-07T02:54:30.820Z,9.90
2022-12-07T02:57:30.521Z,9.90
2022-12-07T03:00:10.452Z,9.90
2022-12-07T03:02:52.999Z,9.90
2022-12-07T03:05:28.780Z,9.90
2022-12-07T03:08:21.130Z,10.00
2022-12-07T03:11:04.704Z,9.90
2022-12-07T03:13:42.246Z,9.90
2022-12-07T03:16:12.033Z,9.90
2022-12-07T03:18:46.077Z,9.90
2022-12-07T03:21:17.245Z,9.90
2022-12-07T03:23:46.253Z,9.90
2022-12-07T03:26:15.532Z,9.90
2022-12-07T03:28:50.042Z,9.90
2022-12-07T03:31:19.333Z,9.90
2022-12-07T03:33:52.388Z,9.90
2022-12-07T03:36:30.001Z,9.90
2022-12-07T03:39:20.700Z,9.90
2022-12-07T03:41:47.724Z,9.90
2022-12-07T03:44:16.373Z,9.90
2022-12-07T03:46:57.542Z,9.90
2022-12-07T03:49:59.145Z,9.90
2022-12-07T03:52:41.441Z,9.80
2022-12-07T03:55:15.656Z,9.80
2022-12-07T03:57:45.610Z,9.80
2022-12-07T04:00:13.557Z,9.80
2022-12-07T04:02:41.096Z,9.80
2022-12-07T04:05:08.793Z,9.80
2022-12-07T04:07:35.731Z,9.80
2022-12-07T04:10:03.039Z,9.80
2022-12-07T04:12:30.032Z,9.80
2022-12-07T04:14:56.983Z,9.80
2022-12-07T04:17:23.877Z,9.80
2022-12-07T04:19:50.771Z,9.80
2022-12-07T04:22:17.760Z,9.80
2022-12-07T04:24:44.623Z,9.70
2022-12-07T04:27:11.475Z,9.70
2022-12-07T04:29:38.418Z,9.70
2022-12-07T04:32:05.459Z,9.70
2022-12-07T04:34:32.416Z,9.70
2022-12-07T04:36:59.536Z,9.70
2022-12-07T04:39:29.211Z,9.70
2022-12-07T04:41:56.670Z,9.70
2022-12-07T04:44:25.020Z,9.70
2022-12-07T04:46:52.638Z,9.70
2022-12-07T04:49:20.300Z,9.60
2022-12-07T04:51:47.717Z,9.60
2022-12-07T04:54:16.843Z,9.70
2022-12-07T04:56:44.441Z,9.70
2022-12-07T04:59:13.351Z,9.60
2022-12-07T05:01:40.506Z,9.70
2022-12-07T05:04:07.790Z,9.70
2022-12-07T05:06:34.872Z,9.60
2022-12-07T05:09:02.126Z,9.60
2022-12-07T05:11:41.382Z,9.60
2022-12-07T05:14:12.697Z,9.60
2022-12-07T05:16:40.744Z,9.60
2022-12-07T05:19:08.222Z,9.60
2022-12-07T05:21:35.471Z,9.60
2022-12-07T05:24:02.792Z,9.60
2022-12-07T05:26:30.164Z,9.60
2022-12-07T05:28:58.120Z,9.60
2022-12-07T05:31:26.756Z,9.60
2022-12-07T05:33:54.212Z,9.60
2022-12-07T05:36:21.265Z,9.60
2022-12-07T05:38:48.135Z,9.70
2022-12-07T05:41:36.094Z,9.60
2022-12-07T05:44:03.247Z,9.60
2022-12-07T05:46:30.122Z,9.60
2022-12-07T05:48:57.150Z,9.60
2022-12-07T05:51:24.036Z,9.60
2022-12-07T05:53:50.881Z,9.60
2022-12-07T05:56:17.684Z,9.60
2022-12-07T05:59:03.332Z,9.60
2022-12-07T06:01:30.320Z,9.70
2022-12-07T06:03:57.255Z,9.60
2022-12-07T06:06:24.149Z,9.60
2022-12-07T06:08:51.069Z,9.60
2022-12-07T06:11:36.616Z,9.60
2022-12-07T06:14:03.521Z,9.60
2022-12-07T06:16:30.995Z,9.60
2022-12-07T06:18:57.939Z,9.70
2022-12-07T06:21:26.692Z,9.60
2022-12-07T06:23:54.152Z,9.60
2022-12-07T06:26:21.613Z,9.70
2022-12-07T06:28:48.546Z,9.70
2022-12-07T06:31:15.581Z,9.60
2022-12-07T06:33:43.027Z,9.70
2022-12-07T06:36:10.547Z,9.70
2022-12-07T06:38:37.824Z,9.60
2022-12-07T06:41:05.191Z,9.60
2022-12-07T06:43:32.074Z,9.60
2022-12-07T06:45:58.908Z,9.70
2022-12-07T06:48:25.969Z,9.60
2022-12-07T06:50:55.156Z,9.70
2022-12-07T06:53:23.090Z,9.70
2022-12-07T06:55:50.627Z,9.60
2022-12-07T06:58:18.343Z,9.70
2022-12-07T07:00:46.190Z,9.70
2022-12-07T07:03:13.173Z,9.70
2022-12-07T07:05:40.275Z,9.70
2022-12-07T07:08:23.316Z,9.70
2022-12-07T07:10:50.892Z,9.70
2022-12-07T07:13:17.814Z,9.70
2022-12-07T07:15:44.745Z,9.70
2022-12-07T07:18:12.238Z,9.70
2022-12-07T07:20:39.264Z,9.70
2022-12-07T07:23:06.727Z,9.70
2022-12-07T07:25:34.425Z,9.70
2022-12-07T07:28:01.425Z,9.70
2022-12-07T07:30:28.627Z,9.70
2022-12-07T07:33:02.841Z,9.70
2022-12-07T07:35:31.260Z,9.70
2022-12-07T07:37:58.427Z,9.70
2022-12-07T07:40:26.211Z,9.70
2022-12-07T07:42:54.640Z,9.70
2022-12-07T07:45:23.587Z,9.70
2022-12-07T07:47:51.327Z,9.70
2022-12-07T07:50:19.036Z,9.70
2022-12-07T07:52:45.974Z,9.70
2022-12-07T07:55:13.173Z,9.70
2022-12-07T07:57:41.295Z,9.70
2022-12-07T08:00:11.777Z,9.70
2022-12-07T08:02:43.898Z,9.70
2022-12-07T08:05:12.971Z,9.70
2022-12-07T08:07:40.435Z,9.70
2022-12-07T08:10:10.223Z,9.80
2022-12-07T08:12:59.189Z,9.80
2022-12-07T08:15:28.246Z,9.80
2022-12-07T08:17:55.560Z,9.80
2022-12-07T08:20:22.593Z,9.80
2022-12-07T08:22:49.440Z,9.80
2022-12-07T08:25:16.399Z,9.80
2022-12-07T08:27:43.292Z,9.80
2022-12-07T08:30:10.440Z,9.80
2022-12-07T08:32:37.377Z,9.80
2022-12-07T08:35:04.467Z,9.80
2022-12-07T08:37:32.265Z,9.80
2022-12-07T08:39:59.121Z,9.80
2022-12-07T08:42:30.598Z,9.80
2022-12-07T08:44:58.242Z,9.80
2022-12-07T08:47:26.207Z,9.80
2022-12-07T08:49:54.646Z,9.80
2022-12-07T08:52:21.652Z,9.80
2022-12-07T08:54:48.836Z,9.90
2022-12-07T08:57:15.695Z,9.90
2022-12-07T08:59:42.629Z,9.90
2022-12-07T09:02:09.638Z,9.90
2022-12-07T09:04:36.514Z,9.90
2022-12-07T09:07:03.585Z,9.90
2022-12-07T09:09:30.566Z,9.90
2022-12-07T09:11:57.495Z,9.90
2022-12-07T09:14:24.723Z,9.90
2022-12-07T09:16:51.592Z,9.90
2022-12-07T09:19:18.456Z,9.90
2022-12-07T09:21:45.486Z,10.00
2022-12-07T09:24:13.663Z,10.00
2022-12-07T09:26:41.464Z,10.00
2022-12-07T09:29:08.528Z,10.00
2022-12-07T09:31:37.979Z,10.00
2022-12-07T09:34:06.666Z,10.00
2022-12-07T09:36:33.925Z,10.00
2022-12-07T09:39:00.864Z,10.00
2022-12-07T09:41:30.856Z,10.00
2022-12-07T09:44:06.178Z,10.10
2022-12-07T09:46:38.493Z,10.10
2022-12-07T09:49:06.492Z,10.10
2022-12-07T09:51:33.422Z,10.10
2022-12-07T09:54:01.277Z,10.10
2022-12-07T09:56:31.760Z,10.20
2022-12-07T09:59:03.714Z,10.20
2022-12-07T10:01:33.619Z,10.20
2022-12-07T10:04:17.799Z,10.30
2022-12-07T10:06:45.024Z,10.30
2022-12-07T10:09:17.461Z,10.30
2022-12-07T10:12:06.602Z,10.30
2022-12-07T10:15:06.839Z,10.30
2022-12-07T10:17:29.562Z,10.30
2022-12-07T10:20:26.120Z,10.40
2022-12-07T10:22:55.916Z,10.40
2022-12-07T10:25:26.778Z,10.40
2022-12-07T10:28:04.194Z,10.40
2022-12-07T10:30:32.650Z,10.40
2022-12-07T10:32:59.598Z,10.40
2022-12-07T10:35:30.179Z,10.40
2022-12-07T10:37:59.537Z,10.40
2022-12-07T10:40:38.763Z,10.40
2022-12-07T10:43:12.820Z,10.40
2022-12-07T10:46:03.429Z,10.40
2022-12-07T10:48:30.725Z,10.40
2022-12-07T10:51:24.076Z,10.40
2022-12-07T10:54:13.576Z,10.40
2022-12-07T10:57:08.098Z,10.40
2022-12-07T10:59:40.816Z,10.50
2022-12-07T11:02:22.807Z,10.50
2022-12-07T11:04:55.938Z,10.50
2022-12-07T11:07:29.176Z,10.50
2022-12-07T11:10:27.171Z,10.50
2022-12-07T11:13:28.425Z,10.50
2022-12-07T11:16:26.859Z,10.50
2022-12-07T11:18:53.716Z,10.50
2022-12-07T11:21:39.183Z,10.50
2022-12-07T11:24:16.229Z,10.50
2022-12-07T11:26:46.019Z,10.50
2022-12-07T11:29:30.260Z,10.50
2022-12-07T11:32:20.302Z,10.60
2022-12-07T11:34:52.824Z,10.60
2022-12-07T11:37:24.873Z,10.60
2022-12-07T11:39:56.847Z,10.60
2022-12-07T11:42:31.521Z,10.70
2022-12-07T11:45:13.588Z,10.70
2022-12-07T11:47:57.541Z,10.70
2022-12-07T11:50:27.214Z,10.70
2022-12-07T11:53:03.736Z,10.80
2022-12-07T11:55:42.148Z,10.80
2022-12-07T11:58:53.746Z,10.80
2022-12-07T12:01:31.314Z,10.80
2022-12-07T12:03:58.115Z,10.80
2022-12-07T12:06:25.088Z,10.80
2022-12-07T12:15:07.074Z,10.90
2022-12-07T12:18:01.946Z,10.90
2022-12-07T12:20:54.980Z,10.90
2022-12-07T12:24:10.986Z,10.90
2022-12-07T12:26:39.466Z,10.90
2022-12-07T12:29:29.234Z,10.90
2022-12-07T12:32:28.360Z,10.90
2022-12-07T12:34:55.116Z,10.90
2022-12-07T12:37:34.219Z,10.90
2022-12-07T12:40:16.086Z,10.90
2022-12-07T12:42:48.109Z,10.90
2022-12-07T12:45:23.684Z,10.90
2022-12-07T12:48:02.884Z,10.90
2022-12-07T12:50:31.705Z,10.90
2022-12-07T12:53:05.411Z,10.90
2022-12-07T12:55:51.418Z,10.90
2022-12-07T12:58:21.209Z,10.90
2022-12-07T13:00:49.907Z,10.90
2022-12-07T13:03:30.196Z,10.90
2022-12-07T13:06:20.848Z,10.90
2022-12-07T13:08:47.878Z,10.90
2022-12-07T13:11:26.145Z,10.90
2022-12-07T13:13:52.998Z,10.90
2022-12-07T13:16:22.616Z,10.90
2022-12-07T13:18:49.470Z,10.90
2022-12-07T13:21:19.244Z,10.90
2022-12-07T13:23:46.016Z,10.90
2022-12-07T13:26:23.640Z,10.90
2022-12-07T13:29:05.472Z,10.90
2022-12-07T13:31:36.603Z,10.90
2022-12-07T13:34:05.220Z,10.90
2022-12-07T13:36:39.658Z,10.90
2022-12-07T13:39:19.830Z,11.00
2022-12-07T13:41:54.483Z,11.00
2022-12-07T13:44:22.037Z,11.00
2022-12-07T13:47:24.238Z,11.00
2022-12-07T13:49:57.099Z,10.90
2022-12-07T13:52:31.812Z,11.00
2022-12-07T13:55:01.855Z,11.00
2022-12-07T13:57:35.654Z,11.00
2022-12-07T14:00:18.007Z,11.00
2022-12-07T14:03:05.026Z,11.00
2022-12-07T14:05:34.058Z,11.00
2022-12-07T14:08:23.860Z,10.90
2022-12-07T14:10:50.682Z,11.00
2022-12-07T14:13:23.257Z,11.00
2022-12-07T14:15:53.463Z,11.00
2022-12-07T14:18:40.982Z,11.00
2022-12-07T14:21:19.444Z,10.90
2022-12-07T14:23:46.728Z,11.00
2022-12-07T14:26:15.920Z,11.00
2022-12-07T14:28:44.315Z,11.00
2022-12-07T14:31:26.364Z,11.00
2022-12-07T14:34:00.962Z,11.00
2022-12-07T14:36:27.786Z,11.00
2022-12-07T14:38:57.214Z,11.00
2022-12-07T14:41:43.319Z,11.00
2022-12-07T14:44:33.990Z,11.00
2022-12-07T14:49:46.616Z,11.00
2022-12-07T14:55:36.205Z,11.00
2022-12-07T14:58:03.074Z,11.10
2022-12-07T15:00:30.035Z,11.10
2022-12-07T15:02:57.932Z,11.00
2022-12-07T15:05:24.869Z,11.10
2022-12-07T15:07:52.086Z,11.10
2022-12-07T15:10:32.982Z,11.10
2022-12-07T15:13:21.867Z,11.10
2022-12-07T15:15:50.050Z,11.10
2022-12-07T15:18:18.164Z,11.10
2022-12-07T15:20:46.098Z,11.00
2022-12-07T15:23:13.839Z,11.10
2022-12-07T15:25:45.605Z,11.10
2022-12-07T15:28:12.804Z,11.10
2022-12-07T15:30:46.825Z,11.10
2022-12-07T15:33:14.535Z,11.10
2022-12-07T15:35:42.693Z,11.10
2022-12-07T15:38:09.940Z,11.10
2022-12-07T15:40:37.111Z,11.10
2022-12-07T15:43:04.617Z,11.10
2022-12-07T15:45:31.650Z,11.10
2022-12-07T15:50:45.937Z,11.10
2022-12-07T15:53:12.763Z,11.10
2022-12-07T15:55:41.277Z,11.10
2022-12-07T15:58:08.550Z,11.10
2022-12-07T16:00:35.428Z,11.10
2022-12-07T16:03:02.333Z,11.10
2022-12-07T16:05:29.213Z,11.00
2022-12-07T16:07:56.124Z,11.00
2022-12-07T16:10:23.039Z,11.00
2022-12-07T16:12:49.887Z,11.00
2022-12-07T16:15:21.447Z,11.00
2022-12-07T16:17:51.985Z,11.00
2022-12-07T16:20:18.956Z,11.00
2022-12-07T16:22:45.768Z,11.00
2022-12-07T16:25:12.640Z,11.00
2022-12-07T16:27:40.291Z,11.00
2022-12-07T16:30:07.947Z,11.00
2022-12-07T16:32:34.872Z,11.00
2022-12-07T16:35:02.213Z,11.00
2022-12-07T16:37:29.301Z,11.00
2022-12-07T16:39:56.119Z,11.00
2022-12-07T16:42:22.949Z,11.00
2022-12-07T16:44:49.727Z,11.00
2022-12-07T16:47:16.628Z,11.00
2022-12-07T16:49:44.326Z,11.00
2022-12-07T16:52:26.495Z,11.00
2022-12-07T16:54:53.294Z,11.00
2022-12-07T16:57:23.423Z,11.10
2022-12-07T16:59:52.364Z,11.10
2022-12-07T17:02:20.144Z,11.00
2022-12-07T17:04:47.150Z,11.10
2022-12-07T17:07:14.959Z,11.10
2022-12-07T17:09:42.099Z,11.10
2022-12-07T17:12:09.109Z,11.10
2022-12-07T17:14:54.969Z,11.00
2022-12-07T17:17:21.939Z,11.00
2022-12-07T17:19:48.732Z,11.00
2022-12-07T17:22:15.586Z,11.00
2022-12-07T17:24:42.338Z,11.00
2022-12-07T17:27:09.332Z,11.00
2022-12-07T17:29:36.295Z,11.00
2022-12-07T17:32:04.190Z,10.90
2022-12-07T17:34:32.271Z,10.90
2022-12-07T17:37:00.535Z,10.90
2022-12-07T17:39:28.261Z,10.90
2022-12-07T17:42:14.197Z,10.90
2022-12-07T17:44:40.997Z,10.90
2022-12-07T17:47:09.513Z,10.90
2022-12-07T17:49:36.425Z,10.90
2022-12-07T17:52:22.212Z,10.90
2022-12-07T17:54:49.013Z,10.90
2022-12-07T17:57:15.893Z,10.90
2022-12-07T17:59:42.780Z,10.90
2022-12-07T18:02:10.424Z,10.90
2022-12-07T18:04:37.445Z,10.90
2022-12-07T18:07:06.807Z,10.90
2022-12-07T18:09:33.884Z,10.90
2022-12-07T18:12:00.992Z,10.90
2022-12-07T18:14:28.385Z,10.90
2022-12-07T18:16:55.731Z,10.90
2022-12-07T18:19:22.662Z,10.90
2022-12-07T18:21:49.727Z,10.90
2022-12-07T18:24:17.848Z,10.90
2022-12-07T18:26:47.666Z,10.90
2022-12-07T18:29:16.849Z,10.80
2022-12-07T18:31:44.941Z,10.80
2022-12-07T18:34:14.770Z,10.80
2022-12-07T18:36:45.958Z,10.80
2022-12-07T18:39:14.571Z,10.80
2022-12-07T18:41:42.246Z,10.80
2022-12-07T18:44:10.661Z,10.80
2022-12-07T18:46:38.747Z,10.80
2022-12-07T18:49:06.669Z,10.80
2022-12-07T18:51:33.746Z,10.80
2022-12-07T18:54:01.716Z,10.80
2022-12-07T18:56:28.902Z,10.80
2022-12-07T18:59:20.118Z,10.80
2022-12-07T19:01:49.768Z,10.80
2022-12-07T19:04:18.209Z,10.80
2022-12-07T19:06:47.620Z,10.80
2022-12-07T19:09:15.302Z,10.70
2022-12-07T19:11:52.081Z,10.70
2022-12-07T19:14:27.986Z,10.70
2022-12-07T19:17:02.618Z,10.70
2022-12-07T19:19:32.476Z,10.70
2022-12-07T19:21:59.895Z,10.70
2022-12-07T19:24:27.115Z,10.70
2022-12-07T19:26:54.084Z,10.70
2022-12-07T19:29:21.080Z,10.70
2022-12-07T19:31:48.397Z,10.70
2022-12-07T19:34:18.632Z,10.60
2022-12-07T19:36:46.598Z,10.60
2022-12-07T19:39:15.512Z,10.60
2022-12-07T19:41:44.020Z,10.60
2022-12-07T19:44:14.402Z,10.60
2022-12-07T19:46:42.650Z,10.50
2022-12-07T19:49:09.641Z,10.50
2022-12-07T19:51:36.683Z,10.50
2022-12-07T19:54:03.832Z,10.50
2022-12-07T19:56:31.240Z,10.50
2022-12-07T19:59:01.012Z,10.50
2022-12-07T20:01:28.866Z,10.50
2022-12-07T20:03:57.499Z,10.50
2022-12-07T20:06:25.062Z,10.50
2022-12-07T20:08:51.989Z,10.50
2022-12-07T20:11:39.314Z,10.50
2022-12-07T20:14:11.926Z,10.40
2022-12-07T20:16:40.408Z,10.50
2022-12-07T20:19:11.519Z,10.40
2022-12-07T20:21:38.873Z,10.40
2022-12-07T20:24:08.398Z,10.40
2022-12-07T20:26:35.580Z,10.40
2022-12-07T20:29:14.770Z,10.40
2022-12-07T20:31:44.661Z,10.40
2022-12-07T20:34:12.125Z,10.40
2022-12-07T20:36:39.278Z,10.40
2022-12-07T20:39:07.052Z,10.40
2022-12-07T20:41:53.623Z,10.40
2022-12-07T20:44:20.749Z,10.40
2022-12-07T20:46:47.863Z,10.40
2022-12-07T20:49:16.936Z,10.40
2022-12-07T20:51:44.517Z,10.40
2022-12-07T20:54:12.116Z,10.40
2022-12-07T20:56:39.055Z,10.40
2022-12-07T20:59:09.768Z,10.30
2022-12-07T21:01:37.332Z,10.30
2022-12-07T21:04:04.875Z,10.30
2022-12-07T21:06:31.967Z,10.30
2022-12-07T21:09:00.241Z,10.30
2022-12-07T21:11:29.511Z,10.30
2022-12-07T21:13:56.441Z,10.30
2022-12-07T21:16:26.392Z,10.30
2022-12-07T21:18:54.923Z,10.30
2022-12-07T21:21:21.930Z,10.30
2022-12-07T21:23:50.921Z,10.30
2022-12-07T21:26:20.042Z,10.20
2022-12-07T21:28:47.343Z,10.20
2022-12-07T21:31:14.699Z,10.20
2022-12-07T21:33:43.921Z,10.20
2022-12-07T21:36:13.958Z,10.20
2022-12-07T21:38:41.396Z,10.20
2022-12-07T21:41:24.123Z,10.20
2022-12-07T21:43:51.251Z,10.20
2022-12-07T21:46:19.115Z,10.20
2022-12-07T21:48:54.921Z,10.20
2022-12-07T21:51:23.296Z,10.20
2022-12-07T21:53:52.171Z,10.20
2022-12-07T21:56:22.076Z,10.30
2022-12-07T21:58:50.273Z,10.20
2022-12-07T22:01:24.574Z,10.20
2022-12-07T22:03:53.769Z,10.20
2022-12-07T22:06:25.835Z,10.20
2022-12-07T22:08:53.761Z,10.20
2022-12-07T22:11:20.721Z,10.20
2022-12-07T22:14:10.343Z,10.20
2022-12-07T22:16:38.725Z,10.20
2022-12-07T22:19:07.274Z,10.20
2022-12-07T22:21:34.148Z,10.20
2022-12-07T22:24:01.621Z,10.20
2022-12-07T22:26:28.571Z,10.20
2022-12-07T22:28:55.495Z,10.20
2022-12-07T22:31:23.153Z,10.10
2022-12-07T22:33:50.803Z,10.10
2022-12-07T22:36:18.218Z,10.10
2022-12-07T22:38:45.876Z,10.10
2022-12-07T22:41:19.849Z,10.10
2022-12-07T22:43:46.660Z,10.10
2022-12-07T22:46:13.618Z,10.10
2022-12-07T22:48:40.484Z,10.10
2022-12-07T22:51:07.555Z,10.10
2022-12-07T22:53:34.388Z,10.10
2022-12-07T22:56:01.262Z,10.10
2022-12-07T22:58:28.179Z,10.10
2022-12-07T23:00:54.989Z,10.10
2022-12-07T23:03:21.980Z,10.10
2022-12-07T23:05:49.971Z,10.10
2022-12-07T23:08:17.127Z,10.10
2022-12-07T23:10:48.966Z,10.10
2022-12-07T23:13:32.828Z,10.10
2022-12-07T23:16:01.383Z,10.10
2022-12-07T23:18:28.386Z,10.10
2022-12-07T23:20:58.388Z,10.10
2022-12-07T23:23:26.303Z,10.10
2022-12-07T23:25:53.401Z,10.10
2022-12-07T23:28:20.508Z,10.10
2022-12-07T23:30:47.488Z,10.10
2022-12-07T23:33:14.403Z,10.10
2022-12-07T23:35:41.199Z,10.00
2022-12-07T23:38:07.987Z,10.00
2022-12-07T23:40:34.784Z,10.00
2022-12-07T23:43:01.577Z,10.00
2022-12-07T23:45:28.378Z,10.00
2022-12-07T23:47:55.177Z,10.00
2022-12-07T23:50:22.030Z,10.00
2022-12-07T23:52:48.895Z,10.00
2022-12-07T23:55:15.762Z,10.00
2022-12-07T23:57:42.757Z,10.00
